sensor_id;sensor_type;location;lat;lon;timestamp;pressure;altitude;pressure_sealevel;temperature;humidity
75290;BME280;63883;48.996;20.804;2024-01-16T00:01:10;94948.81;;;-6.86;100.00
75290;BME280;63883;48.996;20.804;2024-01-16T00:03:44;94945.53;;;-6.84;100.00
75290;BME280;63883;48.996;20.804;2024-01-16T00:06:10;94943.06;;;-6.82;100.00
75290;BME280;63883;48.996;20.804;2024-01-16T00:08:35;94939.81;;;-6.80;100.00
75290;BME280;63883;48.996;20.804;2024-01-16T00:11:02;94937.25;;;-6.84;100.00
75290;BME280;63883;48.996;20.804;2024-01-16T00:13:28;94945.34;;;-6.97;100.00
75290;BME280;63883;48.996;20.804;2024-01-16T00:15:54;94956.03;;;-7.03;100.00
75290;BME280;63883;48.996;20.804;2024-01-16T00:18:22;94960.91;;;-7.09;100.00
75290;BME280;63883;48.996;20.804;2024-01-16T00:20:48;94963.31;;;-7.14;100.00
75290;BME280;63883;48.996;20.804;2024-01-16T00:23:13;94961.53;;;-7.24;100.00
75290;BME280;63883;48.996;20.804;2024-01-16T00:25:39;94959.66;;;-7.38;100.00
75290;BME280;63883;48.996;20.804;2024-01-16T00:28:05;94964.59;;;-7.38;100.00
75290;BME280;63883;48.996;20.804;2024-01-16T00:30:31;94971.16;;;-7.42;100.00
75290;BME280;63883;48.996;20.804;2024-01-16T00:32:57;94978.50;;;-7.46;100.00
75290;BME280;63883;48.996;20.804;2024-01-16T00:35:23;94973.53;;;-7.50;100.00
75290;BME280;63883;48.996;20.804;2024-01-16T00:37:48;94982.81;;;-7.35;100.00
75290;BME280;63883;48.996;20.804;2024-01-16T00:40:14;94981.06;;;-7.42;100.00
75290;BME280;63883;48.996;20.804;2024-01-16T00:42:40;94987.53;;;-7.49;100.00
75290;BME280;63883;48.996;20.804;2024-01-16T00:45:06;94988.38;;;-7.48;100.00
75290;BME280;63883;48.996;20.804;2024-01-16T00:47:31;94994.03;;;-7.55;100.00
75290;BME280;63883;48.996;20.804;2024-01-16T00:49:58;94989.72;;;-7.68;100.00
75290;BME280;63883;48.996;20.804;2024-01-16T00:52:26;94993.22;;;-7.57;100.00
75290;BME280;63883;48.996;20.804;2024-01-16T00:54:52;95000.75;;;-7.48;100.00
75290;BME280;63883;48.996;20.804;2024-01-16T00:57:18;94995.59;;;-7.62;100.00
75290;BME280;63883;48.996;20.804;2024-01-16T00:59:45;94994.78;;;-7.61;100.00
75290;BME280;63883;48.996;20.804;2024-01-16T01:02:11;95000.38;;;-7.72;100.00
75290;BME280;63883;48.996;20.804;2024-01-16T01:04:37;95001.97;;;-7.76;100.00
75290;BME280;63883;48.996;20.804;2024-01-16T01:07:03;95011.75;;;-7.82;100.00
75290;BME280;63883;48.996;20.804;2024-01-16T01:09:29;95005.22;;;-7.78;100.00
75290;BME280;63883;48.996;20.804;2024-01-16T01:11:57;95010.97;;;-7.79;100.00
75290;BME280;63883;48.996;20.804;2024-01-16T01:14:23;95014.19;;;-7.83;100.00
75290;BME280;63883;48.996;20.804;2024-01-16T01:16:51;95006.66;;;-7.90;100.00
75290;BME280;63883;48.996;20.804;2024-01-16T01:19:17;95013.28;;;-7.89;100.00
75290;BME280;63883;48.996;20.804;2024-01-16T01:21:42;95010.88;;;-7.84;100.00
75290;BME280;63883;48.996;20.804;2024-01-16T01:24:08;95011.69;;;-7.85;100.00
75290;BME280;63883;48.996;20.804;2024-01-16T01:26:34;95012.56;;;-7.83;100.00
75290;BME280;63883;48.996;20.804;2024-01-16T01:29:01;95018.25;;;-7.89;100.00
75290;BME280;63883;48.996;20.804;2024-01-16T01:31:26;95014.16;;;-7.86;100.00
75290;BME280;63883;48.996;20.804;2024-01-16T01:33:52;95018.31;;;-7.85;100.00
75290;BME280;63883;48.996;20.804;2024-01-16T01:36:18;95013.09;;;-8.01;100.00
75290;BME280;63883;48.996;20.804;2024-01-16T01:38:43;95011.25;;;-8.11;100.00
75290;BME280;63883;48.996;20.804;2024-01-16T01:41:09;95021.06;;;-8.15;100.00
75290;BME280;63883;48.996;20.804;2024-01-16T01:43:37;95018.47;;;-8.21;100.00
75290;BME280;63883;48.996;20.804;2024-01-16T01:46:13;95027.56;;;-8.19;100.00
75290;BME280;63883;48.996;20.804;2024-01-16T01:48:41;95025.78;;;-8.26;100.00
75290;BME280;63883;48.996;20.804;2024-01-16T01:51:08;95022.53;;;-8.25;100.00
75290;BME280;63883;48.996;20.804;2024-01-16T01:53:34;95031.53;;;-8.27;100.00
75290;BME280;63883;48.996;20.804;2024-01-16T01:56:17;95035.78;;;-8.20;100.00
75290;BME280;63883;48.996;20.804;2024-01-16T01:58:45;95034.88;;;-8.25;100.00
75290;BME280;63883;48.996;20.804;2024-01-16T02:01:13;95033.28;;;-8.23;100.00
75290;BME280;63883;48.996;20.804;2024-01-16T02:03:44;95032.34;;;-8.30;100.00
75290;BME280;63883;48.996;20.804;2024-01-16T02:06:13;95022.66;;;-8.17;100.00
75290;BME280;63883;48.996;20.804;2024-01-16T02:08:42;95029.22;;;-8.19;100.00
75290;BME280;63883;48.996;20.804;2024-01-16T02:11:08;95024.38;;;-8.15;100.00
75290;BME280;63883;48.996;20.804;2024-01-16T02:13:34;95033.47;;;-8.12;100.00
75290;BME280;63883;48.996;20.804;2024-01-16T02:16:00;95039.97;;;-8.17;100.00
75290;BME280;63883;48.996;20.804;2024-01-16T02:18:26;95057.25;;;-8.19;100.00
75290;BME280;63883;48.996;20.804;2024-01-16T02:20:52;95060.63;;;-8.15;100.00
75290;BME280;63883;48.996;20.804;2024-01-16T02:23:29;95066.41;;;-8.13;100.00
75290;BME280;63883;48.996;20.804;2024-01-16T02:25:56;95067.28;;;-8.11;100.00
75290;BME280;63883;48.996;20.804;2024-01-16T02:28:22;95076.28;;;-8.13;100.00
75290;BME280;63883;48.996;20.804;2024-01-16T02:30:48;95077.81;;;-8.21;100.00
75290;BME280;63883;48.996;20.804;2024-01-16T02:33:14;95083.41;;;-8.32;100.00
75290;BME280;63883;48.996;20.804;2024-01-16T02:35:39;95075.06;;;-8.37;100.00
75290;BME280;63883;48.996;20.804;2024-01-16T02:38:05;95088.31;;;-8.33;100.00
75290;BME280;63883;48.996;20.804;2024-01-16T02:40:31;95083.44;;;-8.29;100.00
75290;BME280;63883;48.996;20.804;2024-01-16T02:42:56;95087.59;;;-8.26;100.00
75290;BME280;63883;48.996;20.804;2024-01-16T02:45:22;95077.66;;;-8.31;100.00
75290;BME280;63883;48.996;20.804;2024-01-16T02:47:48;95083.28;;;-8.38;100.00
75290;BME280;63883;48.996;20.804;2024-01-16T02:50:14;95080.69;;;-8.44;100.00
75290;BME280;63883;48.996;20.804;2024-01-16T02:52:40;95083.72;;;-8.55;100.00
75290;BME280;63883;48.996;20.804;2024-01-16T02:55:06;95084.41;;;-8.62;100.00
75290;BME280;63883;48.996;20.804;2024-01-16T02:57:32;95085.31;;;-8.59;100.00
75290;BME280;63883;48.996;20.804;2024-01-16T02:59:57;95082.69;;;-8.66;100.00
75290;BME280;63883;48.996;20.804;2024-01-16T03:02:23;95086.81;;;-8.65;100.00
75290;BME280;63883;48.996;20.804;2024-01-16T03:04:49;95091.34;;;-8.46;100.00
75290;BME280;63883;48.996;20.804;2024-01-16T03:07:16;95095.47;;;-8.45;100.00
75290;BME280;63883;48.996;20.804;2024-01-16T03:09:41;95097.00;;;-8.52;100.00
75290;BME280;63883;48.996;20.804;2024-01-16T03:12:07;95101.81;;;-8.58;100.00
75290;BME280;63883;48.996;20.804;2024-01-16T03:14:32;95117.31;;;-8.63;100.00
75290;BME280;63883;48.996;20.804;2024-01-16T03:17:01;95118.97;;;-8.62;100.00
75290;BME280;63883;48.996;20.804;2024-01-16T03:19:27;95117.19;;;-8.70;100.00
75290;BME280;63883;48.996;20.804;2024-01-16T03:21:53;95129.56;;;-8.68;100.00
75290;BME280;63883;48.996;20.804;2024-01-16T03:24:19;95131.78;;;-8.79;100.00
75290;BME280;63883;48.996;20.804;2024-01-16T03:26:45;95135.81;;;-8.84;100.00
75290;BME280;63883;48.996;20.804;2024-01-16T03:29:11;95130.81;;;-8.85;100.00
75290;BME280;63883;48.996;20.804;2024-01-16T03:31:37;95140.47;;;-8.96;100.00
75290;BME280;63883;48.996;20.804;2024-01-16T03:34:02;95138.75;;;-8.98;100.00
75290;BME280;63883;48.996;20.804;2024-01-16T03:36:28;95129.78;;;-8.95;100.00
75290;BME280;63883;48.996;20.804;2024-01-16T03:38:54;95131.16;;;-9.06;100.00
75290;BME280;63883;48.996;20.804;2024-01-16T03:41:20;95133.50;;;-9.12;100.00
75290;BME280;63883;48.996;20.804;2024-01-16T03:43:45;95139.09;;;-9.19;100.00
75290;BME280;63883;48.996;20.804;2024-01-16T03:46:11;95147.28;;;-9.20;100.00
75290;BME280;63883;48.996;20.804;2024-01-16T03:48:37;95137.38;;;-9.22;100.00
75290;BME280;63883;48.996;20.804;2024-01-16T03:51:03;95135.03;;;-9.17;100.00
75290;BME280;63883;48.996;20.804;2024-01-16T03:53:28;95142.34;;;-9.20;100.00
75290;BME280;63883;48.996;20.804;2024-01-16T03:55:54;95139.72;;;-9.26;100.00
75290;BME280;63883;48.996;20.804;2024-01-16T03:58:20;95134.75;;;-9.28;100.00
75290;BME280;63883;48.996;20.804;2024-01-16T04:00:46;95159.41;;;-9.29;100.00
75290;BME280;63883;48.996;20.804;2024-01-16T04:03:12;95153.66;;;-9.30;100.00
75290;BME280;63883;48.996;20.804;2024-01-16T04:05:38;95149.56;;;-9.29;100.00
75290;BME280;63883;48.996;20.804;2024-01-16T04:08:04;95143.84;;;-9.27;100.00
75290;BME280;63883;48.996;20.804;2024-01-16T04:10:30;95142.16;;;-9.29;100.00
75290;BME280;63883;48.996;20.804;2024-01-16T04:12:55;95143.00;;;-9.27;100.00
75290;BME280;63883;48.996;20.804;2024-01-16T04:15:21;95154.13;;;-9.10;100.00
75290;BME280;63883;48.996;20.804;2024-01-16T04:17:47;95166.41;;;-9.12;100.00
75290;BME280;63883;48.996;20.804;2024-01-16T04:20:13;95163.00;;;-9.17;100.00
75290;BME280;63883;48.996;20.804;2024-01-16T04:22:39;95167.03;;;-9.20;100.00
75290;BME280;63883;48.996;20.804;2024-01-16T04:25:05;95166.19;;;-9.21;100.00
75290;BME280;63883;48.996;20.804;2024-01-16T04:27:31;95158.00;;;-9.20;100.00
75290;BME280;63883;48.996;20.804;2024-01-16T04:29:57;95166.31;;;-9.16;100.00
75290;BME280;63883;48.996;20.804;2024-01-16T04:32:23;95163.72;;;-9.22;100.00
75290;BME280;63883;48.996;20.804;2024-01-16T04:34:49;95172.69;;;-9.24;100.00
75290;BME280;63883;48.996;20.804;2024-01-16T04:37:15;95174.09;;;-9.34;100.00
75290;BME280;63883;48.996;20.804;2024-01-16T04:39:40;95177.34;;;-9.36;100.00
75290;BME280;63883;48.996;20.804;2024-01-16T04:42:06;95179.88;;;-9.33;100.00
75290;BME280;63883;48.996;20.804;2024-01-16T04:44:32;95176.31;;;-9.43;100.00
75290;BME280;63883;48.996;20.804;2024-01-16T04:46:57;95185.19;;;-9.50;100.00
75290;BME280;63883;48.996;20.804;2024-01-16T04:49:23;95181.00;;;-9.54;100.00
75290;BME280;63883;48.996;20.804;2024-01-16T04:51:49;95174.22;;;-9.61;100.00
75290;BME280;63883;48.996;20.804;2024-01-16T04:54:15;95181.59;;;-9.62;100.00
75290;BME280;63883;48.996;20.804;2024-01-16T04:56:44;95198.00;;;-9.63;100.00
75290;BME280;63883;48.996;20.804;2024-01-16T04:59:10;95204.50;;;-9.66;100.00
75290;BME280;63883;48.996;20.804;2024-01-16T05:01:35;95206.09;;;-9.68;100.00
75290;BME280;63883;48.996;20.804;2024-01-16T05:04:01;95211.13;;;-9.65;100.00
75290;BME280;63883;48.996;20.804;2024-01-16T05:06:26;95202.88;;;-9.66;100.00
75290;BME280;63883;48.996;20.804;2024-01-16T05:08:52;95210.28;;;-9.64;100.00
75290;BME280;63883;48.996;20.804;2024-01-16T05:11:18;95204.66;;;-9.60;100.00
75290;BME280;63883;48.996;20.804;2024-01-16T05:13:44;95207.88;;;-9.63;100.00
75290;BME280;63883;48.996;20.804;2024-01-16T05:16:10;95203.41;;;-9.76;100.00
75290;BME280;63883;48.996;20.804;2024-01-16T05:18:36;95200.22;;;-9.72;100.00
75290;BME280;63883;48.996;20.804;2024-01-16T05:21:01;95201.91;;;-9.71;100.00
75290;BME280;63883;48.996;20.804;2024-01-16T05:23:28;95200.19;;;-9.73;100.00
75290;BME280;63883;48.996;20.804;2024-01-16T05:25:53;95210.19;;;-9.69;100.00
75290;BME280;63883;48.996;20.804;2024-01-16T05:28:19;95210.19;;;-9.69;100.00
75290;BME280;63883;48.996;20.804;2024-01-16T05:30:44;95208.44;;;-9.73;100.00
75290;BME280;63883;48.996;20.804;2024-01-16T05:33:10;95210.72;;;-9.79;100.00
75290;BME280;63883;48.996;20.804;2024-01-16T05:35:36;95205.63;;;-9.85;100.00
75290;BME280;63883;48.996;20.804;2024-01-16T05:38:02;95209.84;;;-9.81;100.00
75290;BME280;63883;48.996;20.804;2024-01-16T05:40:28;95227.41;;;-9.70;100.00
75290;BME280;63883;48.996;20.804;2024-01-16T05:42:54;95254.47;;;-9.72;100.00
75290;BME280;63883;48.996;20.804;2024-01-16T05:45:21;95256.19;;;-9.69;100.00
75290;BME280;63883;48.996;20.804;2024-01-16T05:47:46;95257.03;;;-9.69;100.00
75290;BME280;63883;48.996;20.804;2024-01-16T05:50:12;95250.06;;;-9.54;100.00
75290;BME280;63883;48.996;20.804;2024-01-16T05:52:38;95249.69;;;-9.36;100.00
75290;BME280;63883;48.996;20.804;2024-01-16T05:55:04;95251.91;;;-9.15;100.00
75290;BME280;63883;48.996;20.804;2024-01-16T05:57:30;95240.03;;;-9.28;100.00
75290;BME280;63883;48.996;20.804;2024-01-16T05:59:59;95251.78;;;-9.20;100.00
75290;BME280;63883;48.996;20.804;2024-01-16T06:02:27;95253.94;;;-9.32;100.00
75290;BME280;63883;48.996;20.804;2024-01-16T06:04:53;95258.66;;;-9.39;100.00
75290;BME280;63883;48.996;20.804;2024-01-16T06:07:18;95262.03;;;-9.37;100.00
75290;BME280;63883;48.996;20.804;2024-01-16T06:09:44;95274.34;;;-9.37;100.00
75290;BME280;63883;48.996;20.804;2024-01-16T06:12:10;95281.72;;;-9.39;100.00
75290;BME280;63883;48.996;20.804;2024-01-16T06:14:37;95278.88;;;-9.21;100.00
75290;BME280;63883;48.996;20.804;2024-01-16T06:17:03;95292.91;;;-9.20;100.00
75290;BME280;63883;48.996;20.804;2024-01-16T06:19:31;95289.75;;;-9.15;100.00
75290;BME280;63883;48.996;20.804;2024-01-16T06:21:58;95300.50;;;-9.13;100.00
75290;BME280;63883;48.996;20.804;2024-01-16T06:24:24;95317.09;;;-9.07;100.00
75290;BME280;63883;48.996;20.804;2024-01-16T06:26:50;95315.63;;;-9.02;100.00
75290;BME280;63883;48.996;20.804;2024-01-16T06:29:15;95318.16;;;-8.99;100.00
75290;BME280;63883;48.996;20.804;2024-01-16T06:31:41;95324.91;;;-8.93;100.00
75290;BME280;63883;48.996;20.804;2024-01-16T06:34:06;95335.16;;;-8.78;100.00
75290;BME280;63883;48.996;20.804;2024-01-16T06:36:32;95334.41;;;-8.76;100.00
75290;BME280;63883;48.996;20.804;2024-01-16T06:38:58;95336.19;;;-8.72;100.00
75290;BME280;63883;48.996;20.804;2024-01-16T06:41:23;95335.44;;;-8.68;100.00
75290;BME280;63883;48.996;20.804;2024-01-16T06:43:49;95326.50;;;-8.62;100.00
75290;BME280;63883;48.996;20.804;2024-01-16T06:46:15;95328.47;;;-8.49;100.00
75290;BME280;63883;48.996;20.804;2024-01-16T06:48:41;95333.59;;;-8.43;100.00
75290;BME280;63883;48.996;20.804;2024-01-16T06:51:06;95338.09;;;-8.60;100.00
75290;BME280;63883;48.996;20.804;2024-01-16T06:53:33;95352.13;;;-8.59;100.00
75290;BME280;63883;48.996;20.804;2024-01-16T06:55:59;95352.19;;;-8.56;100.00
75290;BME280;63883;48.996;20.804;2024-01-16T06:58:25;95357.84;;;-8.61;100.00
75290;BME280;63883;48.996;20.804;2024-01-16T07:00:50;95359.94;;;-8.75;100.00
75290;BME280;63883;48.996;20.804;2024-01-16T07:03:16;95360.44;;;-8.55;100.00
75290;BME280;63883;48.996;20.804;2024-01-16T07:05:42;95362.47;;;-8.74;100.00
75290;BME280;63883;48.996;20.804;2024-01-16T07:08:09;95370.28;;;-8.57;100.00
75290;BME280;63883;48.996;20.804;2024-01-16T07:10:35;95366.91;;;-8.60;100.00
75290;BME280;63883;48.996;20.804;2024-01-16T07:13:01;95362.06;;;-8.57;100.00
75290;BME280;63883;48.996;20.804;2024-01-16T07:15:27;95373.03;;;-8.46;100.00
75290;BME280;63883;48.996;20.804;2024-01-16T07:17:53;95377.84;;;-8.52;100.00
75290;BME280;63883;48.996;20.804;2024-01-16T07:20:18;95380.22;;;-8.55;100.00
75290;BME280;63883;48.996;20.804;2024-01-16T07:22:44;95386.13;;;-8.50;100.00
75290;BME280;63883;48.996;20.804;2024-01-16T07:25:10;95377.19;;;-8.45;100.00
75290;BME280;63883;48.996;20.804;2024-01-16T07:27:35;95395.53;;;-8.37;100.00
75290;BME280;63883;48.996;20.804;2024-01-16T07:30:04;95402.53;;;-8.19;100.00
75290;BME280;63883;48.996;20.804;2024-01-16T07:32:30;95397.91;;;-8.07;100.00
75290;BME280;63883;48.996;20.804;2024-01-16T07:34:55;95405.56;;;-7.97;100.00
75290;BME280;63883;48.996;20.804;2024-01-16T07:37:21;95406.00;;;-7.78;100.00
75290;BME280;63883;48.996;20.804;2024-01-16T07:39:47;95422.66;;;-7.71;100.00
75290;BME280;63883;48.996;20.804;2024-01-16T07:42:13;95417.06;;;-7.64;100.00
75290;BME280;63883;48.996;20.804;2024-01-16T07:44:39;95425.63;;;-7.49;100.00
75290;BME280;63883;48.996;20.804;2024-01-16T07:47:04;95433.28;;;-7.39;100.00
75290;BME280;63883;48.996;20.804;2024-01-16T07:49:30;95433.03;;;-7.13;100.00
75290;BME280;63883;48.996;20.804;2024-01-16T07:51:56;95420.66;;;-7.13;100.00
75290;BME280;63883;48.996;20.804;2024-01-16T07:54:22;95429.25;;;-6.97;100.00
75290;BME280;63883;48.996;20.804;2024-01-16T07:56:47;95437.16;;;-6.74;100.00
75290;BME280;63883;48.996;20.804;2024-01-16T07:59:13;95439.16;;;-6.55;100.00
75290;BME280;63883;48.996;20.804;2024-01-16T08:01:39;95427.84;;;-6.44;100.00
75290;BME280;63883;48.996;20.804;2024-01-16T08:04:05;95435.94;;;-6.07;100.00
75290;BME280;63883;48.996;20.804;2024-01-16T08:06:31;95435.59;;;-5.77;100.00
75290;BME280;63883;48.996;20.804;2024-01-16T08:08:57;95438.16;;;-5.17;100.00
75290;BME280;63883;48.996;20.804;2024-01-16T08:11:23;95435.88;;;-4.37;100.00
75290;BME280;63883;48.996;20.804;2024-01-16T08:13:49;95449.78;;;-3.73;100.00
75290;BME280;63883;48.996;20.804;2024-01-16T08:16:14;95444.44;;;-3.19;100.00
75290;BME280;63883;48.996;20.804;2024-01-16T08:18:41;95456.25;;;-2.86;98.67
75290;BME280;63883;48.996;20.804;2024-01-16T08:21:06;95455.50;;;-2.77;97.79
75290;BME280;63883;48.996;20.804;2024-01-16T08:23:34;95465.66;;;-2.38;95.56
75290;BME280;63883;48.996;20.804;2024-01-16T08:25:59;95460.91;;;-1.30;92.67
75290;BME280;63883;48.996;20.804;2024-01-16T08:28:27;95465.88;;;-0.89;86.45
75290;BME280;63883;48.996;20.804;2024-01-16T08:30:52;95468.22;;;-0.22;79.32
75290;BME280;63883;48.996;20.804;2024-01-16T08:33:19;95459.09;;;-0.41;84.03
75290;BME280;63883;48.996;20.804;2024-01-16T08:35:44;95457.03;;;0.37;77.39
75290;BME280;63883;48.996;20.804;2024-01-16T08:38:10;95463.88;;;0.11;75.71
75290;BME280;63883;48.996;20.804;2024-01-16T08:40:36;95460.06;;;-0.95;83.40
75290;BME280;63883;48.996;20.804;2024-01-16T08:43:02;95471.59;;;-0.32;79.50
75290;BME280;63883;48.996;20.804;2024-01-16T08:45:29;95463.34;;;-0.67;80.69
75290;BME280;63883;48.996;20.804;2024-01-16T08:47:55;95467.47;;;-0.51;77.82
75290;BME280;63883;48.996;20.804;2024-01-16T08:50:20;95456.59;;;-0.46;83.54
75290;BME280;63883;48.996;20.804;2024-01-16T08:52:46;95471.72;;;-1.14;84.80
75290;BME280;63883;48.996;20.804;2024-01-16T08:55:11;95482.38;;;-0.18;79.86
75290;BME280;63883;48.996;20.804;2024-01-16T08:57:37;95479.94;;;-0.42;79.83
75290;BME280;63883;48.996;20.804;2024-01-16T09:00:05;95485.91;;;-1.30;85.48
75290;BME280;63883;48.996;20.804;2024-01-16T09:02:31;95485.06;;;-1.12;87.69
75290;BME280;63883;48.996;20.804;2024-01-16T09:04:57;95485.06;;;-1.15;87.16
75290;BME280;63883;48.996;20.804;2024-01-16T09:07:24;95481.72;;;-1.34;90.36
75290;BME280;63883;48.996;20.804;2024-01-16T09:09:50;95475.06;;;-1.18;91.73
75290;BME280;63883;48.996;20.804;2024-01-16T09:12:16;95483.38;;;-0.93;89.27
75290;BME280;63883;48.996;20.804;2024-01-16T09:14:41;95494.22;;;-1.00;91.24
75290;BME280;63883;48.996;20.804;2024-01-16T09:17:07;95485.91;;;-0.98;88.73
75290;BME280;63883;48.996;20.804;2024-01-16T09:19:33;95491.72;;;-1.50;89.49
75290;BME280;63883;48.996;20.804;2024-01-16T09:21:59;95485.78;;;-1.93;94.66
75290;BME280;63883;48.996;20.804;2024-01-16T09:24:25;95491.72;;;-1.35;94.60
75290;BME280;63883;48.996;20.804;2024-01-16T09:26:50;95500.06;;;-1.21;92.67
75290;BME280;63883;48.996;20.804;2024-01-16T09:29:16;95493.41;;;-1.10;92.14
75290;BME280;63883;48.996;20.804;2024-01-16T09:31:42;95496.66;;;-0.38;89.77
75290;BME280;63883;48.996;20.804;2024-01-16T09:34:08;95506.28;;;0.50;86.03
75290;BME280;63883;48.996;20.804;2024-01-16T09:36:34;95507.19;;;0.43;83.94
75290;BME280;63883;48.996;20.804;2024-01-16T09:39:05;95522.06;;;0.72;79.16
75290;BME280;63883;48.996;20.804;2024-01-16T09:41:37;95519.47;;;0.79;77.53
75290;BME280;63883;48.996;20.804;2024-01-16T09:44:04;95516.25;;;0.59;80.29
75290;BME280;63883;48.996;20.804;2024-01-16T09:46:31;95520.44;;;0.65;80.83
75290;BME280;63883;48.996;20.804;2024-01-16T09:48:56;95508.47;;;0.99;82.08
75290;BME280;63883;48.996;20.804;2024-01-16T09:51:24;95509.56;;;1.59;78.45
75290;BME280;63883;48.996;20.804;2024-01-16T09:53:50;95506.69;;;1.10;75.30
75290;BME280;63883;48.996;20.804;2024-01-16T09:56:21;95508.44;;;1.89;74.64
75290;BME280;63883;48.996;20.804;2024-01-16T09:58:48;95513.19;;;2.13;69.97
75290;BME280;63883;48.996;20.804;2024-01-16T10:01:16;95508.53;;;2.50;66.63
75290;BME280;63883;48.996;20.804;2024-01-16T10:03:45;95514.78;;;2.82;62.53
75290;BME280;63883;48.996;20.804;2024-01-16T10:06:12;95513.19;;;2.74;62.84
75290;BME280;63883;48.996;20.804;2024-01-16T10:08:39;95512.53;;;3.17;60.72
75290;BME280;63883;48.996;20.804;2024-01-16T10:11:04;95519.59;;;2.97;60.29
75290;BME280;63883;48.996;20.804;2024-01-16T10:13:31;95530.97;;;2.64;60.74
75290;BME280;63883;48.996;20.804;2024-01-16T10:15:58;95514.78;;;2.82;59.92
75290;BME280;63883;48.996;20.804;2024-01-16T10:18:26;95525.13;;;3.68;58.89
75290;BME280;63883;48.996;20.804;2024-01-16T10:20:52;95522.56;;;3.23;60.17
75290;BME280;63883;48.996;20.804;2024-01-16T10:23:29;95535.91;;;3.77;59.24
75290;BME280;63883;48.996;20.804;2024-01-16T10:26:08;95542.84;;;3.65;57.60
75290;BME280;63883;48.996;20.804;2024-01-16T10:28:35;95539.00;;;3.91;55.31
75290;BME280;63883;48.996;20.804;2024-01-16T10:31:05;95542.09;;;4.06;55.07
75290;BME280;63883;48.996;20.804;2024-01-16T10:33:31;95550.25;;;4.18;53.80
75290;BME280;63883;48.996;20.804;2024-01-16T10:36:17;95541.19;;;4.10;53.86
75290;BME280;63883;48.996;20.804;2024-01-16T10:38:45;95555.44;;;4.11;53.50
75290;BME280;63883;48.996;20.804;2024-01-16T10:41:14;95563.75;;;3.71;52.89
75290;BME280;63883;48.996;20.804;2024-01-16T10:43:40;95551.94;;;3.24;55.54
75290;BME280;63883;48.996;20.804;2024-01-16T10:46:16;95546.16;;;2.59;59.52
75290;BME280;63883;48.996;20.804;2024-01-16T10:49:01;95545.81;;;2.82;58.19
75290;BME280;63883;48.996;20.804;2024-01-16T10:51:28;95544.25;;;3.81;55.69
75290;BME280;63883;48.996;20.804;2024-01-16T10:54:02;95541.31;;;4.85;52.71
75290;BME280;63883;48.996;20.804;2024-01-16T10:56:31;95544.06;;;5.11;49.98
75290;BME280;63883;48.996;20.804;2024-01-16T10:59:12;95552.47;;;5.47;49.07
75290;BME280;63883;48.996;20.804;2024-01-16T11:01:43;95547.03;;;4.93;49.63
75290;BME280;63883;48.996;20.804;2024-01-16T11:04:12;95535.34;;;4.06;52.34
75290;BME280;63883;48.996;20.804;2024-01-16T11:06:40;95545.13;;;4.23;51.99
75290;BME280;63883;48.996;20.804;2024-01-16T11:09:07;95551.34;;;4.88;49.74
75290;BME280;63883;48.996;20.804;2024-01-16T11:11:33;95541.94;;;5.32;48.15
75290;BME280;63883;48.996;20.804;2024-01-16T11:14:02;95547.97;;;6.26;47.12
75290;BME280;63883;48.996;20.804;2024-01-16T11:16:31;95543.63;;;6.61;44.11
75290;BME280;63883;48.996;20.804;2024-01-16T11:18:57;95548.97;;;7.07;43.72
75290;BME280;63883;48.996;20.804;2024-01-16T11:21:24;95555.72;;;6.51;43.79
75290;BME280;63883;48.996;20.804;2024-01-16T11:23:50;95549.13;;;6.75;41.73
75290;BME280;63883;48.996;20.804;2024-01-16T11:26:27;95548.28;;;6.14;45.18
75290;BME280;63883;48.996;20.804;2024-01-16T11:28:54;95548.69;;;5.31;44.40
75290;BME280;63883;48.996;20.804;2024-01-16T11:31:29;95546.09;;;4.59;47.88
75290;BME280;63883;48.996;20.804;2024-01-16T11:33:56;95554.59;;;4.93;47.97
75290;BME280;63883;48.996;20.804;2024-01-16T11:39:18;95569.78;;;4.53;46.08
75290;BME280;63883;48.996;20.804;2024-01-16T11:47:04;95578.03;;;2.59;53.13
75290;BME280;63883;48.996;20.804;2024-01-16T11:49:30;95574.03;;;2.43;52.62
75290;BME280;63883;48.996;20.804;2024-01-16T11:51:58;95577.56;;;3.49;51.60
75290;BME280;63883;48.996;20.804;2024-01-16T11:54:24;95583.44;;;2.94;52.58
75290;BME280;63883;48.996;20.804;2024-01-16T11:59:47;95577.31;;;3.64;49.27
75290;BME280;63883;48.996;20.804;2024-01-16T12:02:29;95579.69;;;3.20;50.84
75290;BME280;63883;48.996;20.804;2024-01-16T12:04:55;95581.34;;;3.74;50.02
75290;BME280;63883;48.996;20.804;2024-01-16T12:07:22;95580.59;;;4.60;47.53
75290;BME280;63883;48.996;20.804;2024-01-16T12:09:48;95600.56;;;4.26;46.99
75290;BME280;63883;48.996;20.804;2024-01-16T12:12:15;95602.28;;;3.78;49.20
75290;BME280;63883;48.996;20.804;2024-01-16T12:14:40;95600.91;;;3.03;50.34
75290;BME280;63883;48.996;20.804;2024-01-16T12:17:11;95608.63;;;2.94;52.07
75290;BME280;63883;48.996;20.804;2024-01-16T12:19:37;95605.91;;;2.44;54.26
75290;BME280;63883;48.996;20.804;2024-01-16T12:22:08;95603.72;;;3.42;53.19
75290;BME280;63883;48.996;20.804;2024-01-16T12:24:36;95606.88;;;3.54;51.98
75290;BME280;63883;48.996;20.804;2024-01-16T12:27:02;95621.97;;;3.56;51.04
75290;BME280;63883;48.996;20.804;2024-01-16T12:29:29;95614.00;;;4.28;49.93
75290;BME280;63883;48.996;20.804;2024-01-16T12:32:12;95607.00;;;5.24;47.46
75290;BME280;63883;48.996;20.804;2024-01-16T12:34:46;95611.38;;;4.76;49.00
75290;BME280;63883;48.996;20.804;2024-01-16T12:37:13;95609.97;;;5.41;47.99
75290;BME280;63883;48.996;20.804;2024-01-16T12:39:40;95613.63;;;5.28;46.56
75290;BME280;63883;48.996;20.804;2024-01-16T12:42:08;95624.78;;;4.81;47.40
75290;BME280;63883;48.996;20.804;2024-01-16T12:44:35;95628.44;;;4.66;47.14
75290;BME280;63883;48.996;20.804;2024-01-16T12:47:02;95630.28;;;4.56;47.74
75290;BME280;63883;48.996;20.804;2024-01-16T12:49:27;95624.78;;;4.79;46.40
75290;BME280;63883;48.996;20.804;2024-01-16T12:54:40;95622.59;;;5.41;44.68
75290;BME280;63883;48.996;20.804;2024-01-16T12:57:07;95629.56;;;5.68;43.31